メインページ
METAR-TAF:

METAR-TAF

空港 :

レゾリュート, ヌナブト準州, カナダ

緯度: 74-43N, 経度: 094-59W, 海抜: 67m

現時点の気象観測

当レポートは13時間32分前の03:00(UTC)に作成
の風 34kt、最大46ktの突風を伴う
気温 -11°C
湿度 85%
気圧 1009 hPa
視程: 0.0km
晴天
(強い) , 雪

METAR: CYRB 220300Z 10034G46KT 0SM R35/1100V1400FT/N +BLSN SKC M11/M13 A2981 RMK BLSN7 SLP104

時間: 10:32 (16:32 UTC)

予報

当レポートは16時間53分前の23:39(UTC)に作成
予報は22日の 00時(UTC)から 22日の 24時(UTC)まで有効
東/南東の風 30kt、最大45ktの突風を伴う
視程: 0.4km
高度200ftの
小雪, (強い) , 雪
22日の 0900時(UTC)から
東/南東の風 45kt、最大55ktの突風を伴う
視程: 0.0km
高度100ft以下の
雪, (強い) , 雪
22日の 2100時(UTC)から
東/南東の風 35kt、最大45ktの突風を伴う
視程: 0.4km
高度800ftの千切れ雲あり
小雪, (強い) , 雪

TAF: CYRB 212339Z 2200/2224 11030G45KT 1/4SM -SN +BLSN VV002 FM220900 11045G55KT 0SM SN +BLSN VV000 FM222100 11035G45KT 1/4SM -SN +BLSN BKN008 RMK NXT FCST BY 220600Z

4,000以上の空港の気象観測と天気予報(METAR報とTAF報)

利用可能な観測所は地図上に黄色い丸と赤い丸で示す。

丸の上にカーソルを重ねると観測所名を参照できる。

次にクリックすると気象観測と天気予報を参照できる。

マップの切り替え:黒色「×」印の緑ボタンをクリックして拡大、「-」印の緑ボタンをクリックして縮小、緑色の三角印をクリックして隣りの地図に切り替え


METAR-TAF: